createdAt,value
2023-01-22T00:00:11.272Z,0
2023-01-22T00:01:27.590Z,0
2023-01-22T00:02:43.865Z,0
2023-01-22T00:04:00.179Z,0
2023-01-22T00:05:16.465Z,0
2023-01-22T00:06:32.752Z,0
2023-01-22T00:07:49.055Z,0
2023-01-22T00:09:05.335Z,0
2023-01-22T00:10:21.641Z,0
2023-01-22T00:11:36.958Z,0
2023-01-22T00:12:53.244Z,0
2023-01-22T00:14:09.552Z,0
2023-01-22T00:15:25.835Z,0
2023-01-22T00:16:42.128Z,0
2023-01-22T00:17:58.417Z,0
2023-01-22T00:19:14.720Z,0
2023-01-22T00:20:31.014Z,0
2023-01-22T00:21:47.316Z,0
2023-01-22T00:23:03.592Z,0
2023-01-22T00:24:19.892Z,0
2023-01-22T00:25:36.200Z,0
2023-01-22T00:26:52.492Z,0
2023-01-22T00:28:07.801Z,0
2023-01-22T00:29:24.084Z,0
2023-01-22T00:30:40.393Z,0
2023-01-22T00:31:56.676Z,0
2023-01-22T00:33:12.970Z,0
2023-01-22T00:34:29.289Z,0
2023-01-22T00:35:45.567Z,0
2023-01-22T00:37:01.871Z,0
2023-01-22T00:38:18.165Z,0
2023-01-22T00:39:34.458Z,0
2023-01-22T00:40:50.759Z,0
2023-01-22T00:42:07.046Z,0
2023-01-22T00:43:23.325Z,0
2023-01-22T00:44:38.647Z,0
2023-01-22T00:45:54.929Z,0
2023-01-22T00:47:11.220Z,0
2023-01-22T00:48:27.529Z,0
2023-01-22T00:49:43.824Z,0
2023-01-22T00:51:00.135Z,0
2023-01-22T00:52:16.400Z,0
2023-01-22T00:53:32.706Z,0
2023-01-22T00:54:48.993Z,0
2023-01-22T00:56:05.287Z,0
2023-01-22T00:57:21.592Z,0
2023-01-22T00:58:37.887Z,0
2023-01-22T00:59:54.187Z,0
2023-01-22T01:01:09.480Z,0
2023-01-22T01:02:25.780Z,0
2023-01-22T01:03:42.076Z,0
2023-01-22T01:04:58.375Z,0
2023-01-22T01:06:14.674Z,0
2023-01-22T01:07:30.966Z,0
2023-01-22T01:08:47.261Z,0
2023-01-22T01:10:03.541Z,0
2023-01-22T01:12:36.144Z,0
2023-01-22T01:13:52.437Z,0
2023-01-22T01:15:08.738Z,0
2023-01-22T01:16:25.018Z,0
2023-01-22T01:17:40.327Z,0
2023-01-22T01:18:56.635Z,0
2023-01-22T01:20:12.923Z,0
2023-01-22T01:21:29.228Z,0
2023-01-22T01:22:45.517Z,0
2023-01-22T01:24:01.800Z,0
2023-01-22T01:25:18.092Z,0
2023-01-22T01:26:34.407Z,0
2023-01-22T01:27:50.697Z,0
2023-01-22T01:29:06.981Z,0
2023-01-22T01:30:23.292Z,0
2023-01-22T01:31:39.587Z,0
2023-01-22T01:32:55.879Z,0
2023-01-22T01:34:11.193Z,0
2023-01-22T01:35:27.491Z,0
2023-01-22T01:36:43.768Z,0
2023-01-22T01:38:00.072Z,0
2023-01-22T01:39:16.352Z,0
2023-01-22T01:40:32.658Z,0
2023-01-22T01:41:48.967Z,0
2023-01-22T01:43:05.256Z,0
2023-01-22T01:44:21.558Z,0
2023-01-22T01:45:37.845Z,0
2023-01-22T01:46:54.145Z,0
2023-01-22T01:48:10.441Z,0
2023-01-22T01:49:26.708Z,0
2023-01-22T01:50:42.014Z,0
2023-01-22T01:51:58.321Z,0
2023-01-22T01:53:14.624Z,0
2023-01-22T01:54:30.913Z,0
2023-01-22T01:55:47.194Z,0
2023-01-22T01:57:02.522Z,0
2023-01-22T01:58:18.827Z,0
2023-01-22T01:59:35.122Z,0
2023-01-22T02:00:51.392Z,0
2023-01-22T02:02:07.702Z,0
2023-01-22T02:03:23.994Z,0
2023-01-22T02:04:40.290Z,0
2023-01-22T02:05:56.577Z,0
2023-01-22T02:07:12.890Z,0
2023-01-22T02:08:29.175Z,0
2023-01-22T02:09:45.470Z,0
2023-01-22T02:11:01.757Z,0
2023-01-22T02:12:18.047Z,0
2023-01-22T02:13:33.362Z,0
2023-01-22T02:14:49.661Z,0
2023-01-22T02:16:05.949Z,0
2023-01-22T02:17:22.249Z,0
2023-01-22T02:18:38.544Z,0
2023-01-22T02:19:54.832Z,0
2023-01-22T02:21:11.143Z,0
2023-01-22T02:22:27.430Z,0
2023-01-22T02:23:43.727Z,0
2023-01-22T02:25:00.032Z,0
2023-01-22T02:26:16.299Z,0
2023-01-22T02:27:32.605Z,0
2023-01-22T02:28:48.908Z,0
2023-01-22T02:30:04.214Z,0
2023-01-22T02:31:20.496Z,0
2023-01-22T02:32:36.790Z,0
2023-01-22T02:33:53.099Z,0
2023-01-22T02:35:09.385Z,0
2023-01-22T02:36:25.701Z,0
2023-01-22T02:37:41.985Z,0
2023-01-22T02:38:58.282Z,0
2023-01-22T02:40:14.558Z,0
2023-01-22T02:41:30.872Z,0
2023-01-22T02:42:47.159Z,0
2023-01-22T02:44:03.463Z,0
2023-01-22T02:45:19.763Z,0
2023-01-22T02:46:36.044Z,0
2023-01-22T02:47:51.355Z,0
2023-01-22T02:49:07.654Z,0
2023-01-22T02:50:23.931Z,0
2023-01-22T02:51:40.225Z,0
2023-01-22T02:52:56.525Z,0
2023-01-22T02:54:12.827Z,0
2023-01-22T02:55:29.115Z,0
2023-01-22T02:56:45.420Z,0
2023-01-22T02:58:01.710Z,0
2023-01-22T02:59:18.007Z,0
2023-01-22T03:00:34.292Z,0
2023-01-22T03:01:50.606Z,0
2023-01-22T03:03:06.875Z,0
2023-01-22T03:04:22.197Z,0
2023-01-22T03:05:38.478Z,0
2023-01-22T03:06:54.777Z,0
2023-01-22T03:08:11.070Z,0
2023-01-22T03:09:27.387Z,0
2023-01-22T03:10:43.658Z,0
2023-01-22T03:11:59.955Z,0
2023-01-22T03:13:16.256Z,0
2023-01-22T03:14:32.544Z,0
2023-01-22T03:15:48.835Z,0
2023-01-22T03:17:05.151Z,0
2023-01-22T03:18:21.440Z,0
2023-01-22T03:19:37.731Z,0
2023-01-22T03:20:53.033Z,0
2023-01-22T03:22:09.330Z,0
2023-01-22T03:23:25.636Z,0
2023-01-22T03:24:41.933Z,0
2023-01-22T03:25:58.238Z,0
2023-01-22T03:27:14.000Z,0
2023-01-22T03:28:30.820Z,0
2023-01-22T03:29:47.101Z,0
2023-01-22T03:31:03.393Z,0
2023-01-22T03:32:19.701Z,0
2023-01-22T03:33:35.995Z,0
2023-01-22T03:34:52.281Z,0
2023-01-22T03:36:08.575Z,0
2023-01-22T03:37:23.883Z,0
2023-01-22T03:38:40.175Z,0
2023-01-22T03:39:56.468Z,0
2023-01-22T03:41:12.781Z,0
2023-01-22T03:42:29.084Z,0
2023-01-22T03:43:45.369Z,0
2023-01-22T03:45:01.668Z,0
2023-01-22T03:46:17.943Z,0
2023-01-22T03:47:34.254Z,0
2023-01-22T03:48:50.547Z,0
2023-01-22T03:50:06.856Z,0
2023-01-22T03:51:23.137Z,0
2023-01-22T03:52:39.434Z,0
2023-01-22T03:53:54.740Z,0
2023-01-22T03:55:11.021Z,0
2023-01-22T03:56:27.329Z,0
2023-01-22T03:57:43.622Z,0
2023-01-22T03:58:59.909Z,0
2023-01-22T04:00:16.215Z,0
2023-01-22T04:01:32.513Z,0
2023-01-22T04:02:48.811Z,0
2023-01-22T04:04:05.100Z,0
2023-01-22T04:05:21.407Z,0
2023-01-22T04:06:37.688Z,0
2023-01-22T04:07:53.966Z,0
2023-01-22T04:09:10.293Z,0
2023-01-22T04:10:25.602Z,0
2023-01-22T04:11:41.868Z,0
2023-01-22T04:12:58.164Z,0
2023-01-22T04:14:14.455Z,0
2023-01-22T04:15:30.750Z,0
2023-01-22T04:16:47.062Z,0
2023-01-22T04:18:03.362Z,0
2023-01-22T04:19:19.640Z,0
2023-01-22T04:20:35.951Z,0
2023-01-22T04:21:52.225Z,0
2023-01-22T04:23:08.551Z,0
2023-01-22T04:24:24.841Z,0
2023-01-22T04:25:41.113Z,0
2023-01-22T04:26:56.446Z,0
2023-01-22T04:28:12.716Z,0
2023-01-22T04:29:29.008Z,0
2023-01-22T04:30:45.319Z,0
2023-01-22T04:32:01.000Z,0
2023-01-22T04:33:17.920Z,0
2023-01-22T04:34:34.199Z,0
2023-01-22T04:35:50.492Z,0
2023-01-22T04:37:06.804Z,0
2023-01-22T04:38:23.087Z,0
2023-01-22T04:39:39.392Z,0
2023-01-22T04:40:55.669Z,0
2023-01-22T04:42:11.975Z,0
2023-01-22T04:43:27.288Z,0
2023-01-22T04:44:43.569Z,0
2023-01-22T04:45:59.876Z,0
2023-01-22T04:47:16.149Z,0
2023-01-22T04:48:32.449Z,0
2023-01-22T04:49:48.746Z,0
2023-01-22T04:51:05.046Z,0
2023-01-22T04:53:37.627Z,0
2023-01-22T04:54:53.937Z,0
2023-01-22T04:56:10.234Z,0
2023-01-22T04:57:26.527Z,0
2023-01-22T04:58:42.000Z,0
2023-01-22T04:59:58.113Z,0
2023-01-22T05:01:14.422Z,0
2023-01-22T05:02:30.728Z,0
2023-01-22T05:03:47.003Z,0
2023-01-22T05:05:03.305Z,0
2023-01-22T05:06:19.602Z,0
2023-01-22T05:07:35.896Z,0
2023-01-22T05:08:52.177Z,0
2023-01-22T05:10:08.496Z,0
2023-01-22T05:11:24.764Z,0
2023-01-22T05:12:41.068Z,0
2023-01-22T05:13:57.375Z,0
2023-01-22T05:15:13.670Z,0
2023-01-22T05:16:28.971Z,0
2023-01-22T05:17:45.281Z,0
2023-01-22T05:19:01.573Z,0
2023-01-22T05:20:17.850Z,0
2023-01-22T05:21:34.150Z,0
2023-01-22T05:22:50.447Z,0
2023-01-22T05:24:06.728Z,0
2023-01-22T05:25:23.032Z,0
2023-01-22T05:26:39.342Z,0
2023-01-22T05:27:55.640Z,0
2023-01-22T05:29:11.906Z,0
2023-01-22T05:30:28.201Z,0
2023-01-22T05:31:44.495Z,0
2023-01-22T05:32:59.827Z,0
2023-01-22T05:34:16.113Z,0
2023-01-22T05:35:32.408Z,0
2023-01-22T05:36:48.723Z,0
2023-01-22T05:38:04.991Z,0
2023-01-22T05:39:21.304Z,0
2023-01-22T05:40:37.595Z,0
2023-01-22T05:41:53.875Z,0
2023-01-22T05:43:10.173Z,0
2023-01-22T05:44:26.479Z,0
2023-01-22T05:45:42.769Z,0
2023-01-22T05:46:59.065Z,0
2023-01-22T05:48:15.350Z,0
2023-01-22T05:49:30.674Z,0
2023-01-22T05:50:46.954Z,0
2023-01-22T05:52:03.259Z,0
2023-01-22T05:53:19.545Z,0
2023-01-22T05:54:35.830Z,0
2023-01-22T05:55:52.125Z,0
2023-01-22T05:57:08.445Z,0
2023-01-22T05:58:24.739Z,0
2023-01-22T05:59:41.029Z,0
2023-01-22T06:00:57.326Z,0
2023-01-22T06:02:13.626Z,0
2023-01-22T06:03:29.897Z,0
2023-01-22T06:04:46.191Z,0
2023-01-22T06:06:01.507Z,0
2023-01-22T06:07:17.820Z,0
2023-01-22T06:08:34.090Z,0
2023-01-22T06:09:50.405Z,0
2023-01-22T06:11:06.690Z,0
2023-01-22T06:12:22.019Z,0
2023-01-22T06:13:38.317Z,0
2023-01-22T06:14:54.613Z,0
2023-01-22T06:16:10.882Z,0
2023-01-22T06:17:27.195Z,0
2023-01-22T06:18:43.479Z,0
2023-01-22T06:19:59.768Z,0
2023-01-22T06:21:16.073Z,0
2023-01-22T06:22:32.353Z,0
2023-01-22T06:23:48.647Z,0
2023-01-22T06:25:04.952Z,0
2023-01-22T06:26:21.243Z,0
2023-01-22T06:27:37.552Z,0
2023-01-22T06:28:52.862Z,0
2023-01-22T06:30:09.152Z,0
2023-01-22T06:31:25.435Z,0
2023-01-22T06:32:41.682Z,1
2023-01-22T06:33:57.971Z,0
2023-01-22T06:35:14.262Z,0
2023-01-22T06:36:30.520Z,1
2023-01-22T06:37:46.753Z,1
2023-01-22T06:39:03.056Z,0
2023-01-22T06:40:19.353Z,0
2023-01-22T06:41:35.595Z,2
2023-01-22T06:42:51.861Z,1
2023-01-22T06:44:08.082Z,1
2023-01-22T06:45:23.362Z,1
2023-01-22T06:46:39.585Z,2
2023-01-22T06:47:55.838Z,1
2023-01-22T06:49:12.056Z,2
2023-01-22T06:50:28.300Z,2
2023-01-22T06:51:44.546Z,4
2023-01-22T06:53:00.785Z,10
2023-01-22T06:54:17.028Z,7
2023-01-22T06:55:33.285Z,10
2023-01-22T06:56:49.499Z,10
2023-01-22T06:58:05.741Z,11
2023-01-22T06:59:22.000Z,12
2023-01-22T07:00:38.227Z,17
2023-01-22T07:01:53.492Z,16
2023-01-22T07:03:09.736Z,19
2023-01-22T07:04:25.970Z,21
2023-01-22T07:05:42.200Z,22
2023-01-22T07:06:58.464Z,26
2023-01-22T07:08:14.707Z,25
2023-01-22T07:09:30.950Z,31
2023-01-22T07:10:47.184Z,38
2023-01-22T07:12:03.433Z,34
2023-01-22T07:13:19.666Z,40
2023-01-22T07:14:35.896Z,43
2023-01-22T07:15:52.127Z,46
2023-01-22T07:17:08.386Z,48
2023-01-22T07:18:23.629Z,49
2023-01-22T07:19:39.889Z,53
2023-01-22T07:20:56.000Z,58
2023-01-22T07:22:12.362Z,55
2023-01-22T07:23:28.598Z,61
2023-01-22T07:24:44.845Z,67
2023-01-22T07:26:01.080Z,62
2023-01-22T07:27:17.333Z,66
2023-01-22T07:28:33.566Z,67
2023-01-22T07:29:49.807Z,72
2023-01-22T07:31:06.036Z,73
2023-01-22T07:32:22.288Z,81
2023-01-22T07:33:38.524Z,82
2023-01-22T07:34:53.768Z,82
2023-01-22T07:36:10.024Z,79
2023-01-22T07:37:26.274Z,90
2023-01-22T07:38:42.508Z,86
2023-01-22T07:39:58.738Z,86
2023-01-22T07:41:15.004Z,99
2023-01-22T07:42:31.225Z,97
2023-01-22T07:43:47.482Z,93
2023-01-22T07:45:03.710Z,101
2023-01-22T07:46:19.958Z,105
2023-01-22T07:47:36.173Z,105
2023-01-22T07:48:52.451Z,113
2023-01-22T07:50:08.670Z,121
2023-01-22T07:51:23.933Z,122
2023-01-22T07:52:40.189Z,132
2023-01-22T07:53:56.417Z,134
2023-01-22T07:55:12.646Z,133
2023-01-22T07:56:28.899Z,133
2023-01-22T07:57:45.133Z,131
2023-01-22T07:59:01.379Z,139
2023-01-22T08:00:17.606Z,132
2023-01-22T08:01:33.846Z,146
2023-01-22T08:02:50.095Z,151
2023-01-22T08:04:06.334Z,142
2023-01-22T08:05:22.569Z,162
2023-01-22T08:06:38.814Z,157
2023-01-22T08:07:54.055Z,165
2023-01-22T08:09:10.318Z,168
2023-01-22T08:10:26.560Z,171
2023-01-22T08:11:42.779Z,173
2023-01-22T08:12:59.038Z,192
2023-01-22T08:14:15.276Z,192
2023-01-22T08:15:31.500Z,193
2023-01-22T08:16:47.739Z,207
2023-01-22T08:18:03.981Z,215
2023-01-22T08:19:20.226Z,236
2023-01-22T08:20:36.486Z,224
2023-01-22T08:21:52.709Z,245
2023-01-22T08:23:08.962Z,257
2023-01-22T08:24:24.225Z,249
2023-01-22T08:25:40.445Z,252
2023-01-22T08:26:56.692Z,267
2023-01-22T08:28:12.930Z,280
2023-01-22T08:29:29.191Z,284
2023-01-22T08:30:45.410Z,276
2023-01-22T08:32:01.673Z,273
2023-01-22T08:33:17.886Z,277
2023-01-22T08:34:34.156Z,291
2023-01-22T08:35:50.370Z,298
2023-01-22T08:37:06.632Z,295
2023-01-22T08:38:22.851Z,322
2023-01-22T08:39:39.123Z,313
2023-01-22T08:40:54.358Z,316
2023-01-22T08:42:10.605Z,306
2023-01-22T08:43:26.834Z,328
2023-01-22T08:44:43.097Z,318
2023-01-22T08:45:59.325Z,307
2023-01-22T08:47:15.566Z,318
2023-01-22T08:48:31.818Z,336
2023-01-22T08:49:48.031Z,318
2023-01-22T08:51:04.270Z,332
2023-01-22T08:52:20.520Z,355
2023-01-22T08:53:36.785Z,368
2023-01-22T08:54:52.997Z,397
2023-01-22T08:56:09.250Z,412
2023-01-22T08:57:24.491Z,413
2023-01-22T08:58:40.739Z,398
2023-01-22T08:59:56.990Z,401
2023-01-22T09:01:13.236Z,400
2023-01-22T09:02:29.459Z,408
2023-01-22T09:03:45.708Z,414
2023-01-22T09:05:01.937Z,467
2023-01-22T09:06:18.176Z,500
2023-01-22T09:07:34.419Z,519
2023-01-22T09:08:50.664Z,477
2023-01-22T09:10:06.900Z,504
2023-01-22T09:11:23.141Z,493
2023-01-22T09:12:39.396Z,502
2023-01-22T09:13:54.649Z,453
2023-01-22T09:15:10.891Z,446
2023-01-22T09:16:27.145Z,508
2023-01-22T09:17:43.379Z,481
2023-01-22T09:18:59.601Z,494
2023-01-22T09:20:15.842Z,495
2023-01-22T09:21:32.092Z,507
2023-01-22T09:22:48.329Z,552
2023-01-22T09:24:04.578Z,522
2023-01-22T09:25:20.819Z,498
2023-01-22T09:26:37.041Z,529
2023-01-22T09:27:53.283Z,490
2023-01-22T09:29:09.552Z,532
2023-01-22T09:30:24.802Z,563
2023-01-22T09:31:41.019Z,500
2023-01-22T09:32:57.285Z,544
2023-01-22T09:34:13.506Z,513
2023-01-22T09:35:29.764Z,543
2023-01-22T09:36:45.985Z,620
2023-01-22T09:38:02.229Z,587
2023-01-22T09:39:18.466Z,593
2023-01-22T09:40:34.707Z,524
2023-01-22T09:41:50.952Z,604
2023-01-22T09:43:07.211Z,575
2023-01-22T09:44:23.460Z,621
2023-01-22T09:45:39.677Z,595
2023-01-22T09:46:54.931Z,541
2023-01-22T09:48:11.186Z,585
2023-01-22T09:49:27.406Z,614
2023-01-22T09:50:43.655Z,576
2023-01-22T09:51:59.906Z,558
2023-01-22T09:53:16.160Z,606
2023-01-22T09:54:32.390Z,587
2023-01-22T09:55:48.631Z,636
2023-01-22T09:57:04.857Z,638
2023-01-22T09:58:21.127Z,645
2023-01-22T09:59:37.331Z,720
2023-01-22T10:00:53.574Z,674
2023-01-22T10:02:09.846Z,740
2023-01-22T10:03:25.068Z,699
2023-01-22T10:04:41.320Z,737
2023-01-22T10:05:57.557Z,771
2023-01-22T10:07:13.811Z,849
2023-01-22T10:08:30.050Z,844
2023-01-22T10:09:46.296Z,883
2023-01-22T10:11:02.520Z,898
2023-01-22T10:12:18.756Z,813
2023-01-22T10:13:34.996Z,998
2023-01-22T10:14:51.237Z,937
2023-01-22T10:16:07.494Z,987
2023-01-22T10:17:23.744Z,899
2023-01-22T10:18:39.966Z,907
2023-01-22T10:19:55.219Z,866
2023-01-22T10:21:11.471Z,807
2023-01-22T10:22:27.720Z,889
2023-01-22T10:23:43.969Z,878
2023-01-22T10:25:00.178Z,800
2023-01-22T10:26:16.435Z,830
2023-01-22T10:28:47.938Z,901
2023-01-22T10:30:03.216Z,808
2023-01-22T10:31:19.447Z,859
2023-01-22T10:32:35.675Z,837
2023-01-22T10:33:51.923Z,895
2023-01-22T10:35:08.148Z,714
2023-01-22T10:36:24.382Z,556
2023-01-22T10:37:40.633Z,473
2023-01-22T10:38:56.869Z,403
2023-01-22T10:40:13.127Z,386
2023-01-22T10:41:29.345Z,484
2023-01-22T10:42:45.588Z,619
2023-01-22T10:44:01.833Z,692
2023-01-22T10:45:18.100Z,758
2023-01-22T10:46:33.353Z,832
2023-01-22T10:47:49.589Z,804
2023-01-22T10:49:05.829Z,799
2023-01-22T10:50:22.054Z,789
2023-01-22T10:51:38.291Z,817
2023-01-22T10:52:54.548Z,762
2023-01-22T10:54:10.768Z,810
2023-01-22T10:55:27.028Z,713
2023-01-22T10:56:43.250Z,644
2023-01-22T10:57:59.504Z,631
2023-01-22T10:59:15.751Z,681
2023-01-22T11:00:31.971Z,734
2023-01-22T11:01:48.218Z,642
2023-01-22T11:03:03.488Z,657
2023-01-22T11:04:19.716Z,550
2023-01-22T11:05:35.953Z,582
2023-01-22T11:06:52.194Z,491
2023-01-22T11:08:08.451Z,469
2023-01-22T11:09:24.697Z,376
2023-01-22T11:10:40.934Z,355
2023-01-22T11:11:57.174Z,550
2023-01-22T11:13:13.393Z,620
2023-01-22T11:14:29.665Z,558
2023-01-22T11:15:45.906Z,735
2023-01-22T11:17:02.117Z,719
2023-01-22T11:18:18.390Z,617
2023-01-22T11:19:33.634Z,543
2023-01-22T11:20:49.868Z,481
2023-01-22T11:22:06.127Z,587
2023-01-22T11:23:22.352Z,527
2023-01-22T11:24:38.610Z,401
2023-01-22T11:25:54.822Z,492
2023-01-22T11:27:11.066Z,742
2023-01-22T11:28:27.302Z,797
2023-01-22T11:29:43.539Z,824
2023-01-22T11:30:59.793Z,835
2023-01-22T11:32:16.023Z,978
2023-01-22T11:33:32.257Z,1033
2023-01-22T11:34:48.509Z,1097
2023-01-22T11:36:03.773Z,1246
2023-01-22T11:37:19.997Z,1072
2023-01-22T11:38:36.239Z,955
2023-01-22T11:39:52.480Z,919
2023-01-22T11:41:08.737Z,944
2023-01-22T11:42:24.986Z,904
2023-01-22T11:43:41.222Z,775
2023-01-22T11:44:57.476Z,660
2023-01-22T11:46:13.710Z,571
2023-01-22T11:47:29.940Z,535
2023-01-22T11:48:46.161Z,662
2023-01-22T11:50:02.401Z,869
2023-01-22T11:51:18.666Z,777
2023-01-22T11:52:33.914Z,827
2023-01-22T11:53:50.142Z,747
2023-01-22T11:55:06.422Z,774
2023-01-22T11:56:22.655Z,691
2023-01-22T11:57:38.887Z,773
2023-01-22T11:58:55.143Z,794
2023-01-22T12:00:11.364Z,769
2023-01-22T12:01:27.588Z,814
2023-01-22T12:02:43.830Z,809
2023-01-22T12:04:00.094Z,730
2023-01-22T12:05:16.329Z,777
2023-01-22T12:06:32.559Z,770
2023-01-22T12:07:48.792Z,840
2023-01-22T12:09:04.071Z,823
2023-01-22T12:10:20.288Z,900
2023-01-22T12:11:36.545Z,813
2023-01-22T12:12:52.792Z,882
2023-01-22T12:14:09.013Z,831
2023-01-22T12:15:25.256Z,873
2023-01-22T12:16:41.491Z,937
2023-01-22T12:17:57.729Z,1014
2023-01-22T12:19:13.998Z,1044
2023-01-22T12:20:30.220Z,1111
2023-01-22T12:21:46.000Z,976
2023-01-22T12:23:02.695Z,912
2023-01-22T12:24:18.944Z,937
2023-01-22T12:25:34.225Z,1209
2023-01-22T12:26:50.436Z,1127
2023-01-22T12:28:06.698Z,1219
2023-01-22T12:29:22.933Z,1323
2023-01-22T12:30:39.152Z,1284
2023-01-22T12:31:55.424Z,1212
2023-01-22T12:33:11.664Z,1197
2023-01-22T12:34:27.900Z,1074
2023-01-22T12:35:44.125Z,1047
2023-01-22T12:37:00.363Z,1017
2023-01-22T12:38:16.607Z,999
2023-01-22T12:39:32.857Z,1019
2023-01-22T12:40:49.097Z,1067
2023-01-22T12:42:04.347Z,1048
2023-01-22T12:43:20.574Z,1003
2023-01-22T12:44:36.842Z,986
2023-01-22T12:45:53.062Z,1010
2023-01-22T12:47:09.319Z,1022
2023-01-22T12:48:25.537Z,1020
2023-01-22T12:49:41.794Z,988
2023-01-22T12:50:58.047Z,1035
2023-01-22T12:52:14.281Z,954
2023-01-22T12:53:30.537Z,1077
2023-01-22T12:54:46.763Z,1061
2023-01-22T12:56:03.010Z,1111
2023-01-22T12:57:19.232Z,1207
2023-01-22T12:58:34.488Z,1194
2023-01-22T12:59:50.743Z,1261
2023-01-22T13:01:06.963Z,1252
2023-01-22T13:02:23.205Z,1177
2023-01-22T13:03:39.464Z,1297
2023-01-22T13:04:55.694Z,1200
2023-01-22T13:06:11.927Z,1174
2023-01-22T13:07:28.163Z,1142
2023-01-22T13:08:44.412Z,1166
2023-01-22T13:10:00.664Z,1096
2023-01-22T13:11:16.909Z,1134
2023-01-22T13:12:33.138Z,1156
2023-01-22T13:13:49.385Z,1024
2023-01-22T13:15:04.649Z,994
2023-01-22T13:16:20.868Z,1091
2023-01-22T13:17:37.128Z,1138
2023-01-22T13:18:53.347Z,1083
2023-01-22T13:20:09.585Z,1036
2023-01-22T13:21:25.846Z,1015
2023-01-22T13:22:42.103Z,1004
2023-01-22T13:23:58.317Z,1009
2023-01-22T13:25:14.563Z,1001
2023-01-22T13:26:30.788Z,949
2023-01-22T13:27:47.054Z,902
2023-01-22T13:29:03.281Z,915
2023-01-22T13:30:19.512Z,924
2023-01-22T13:31:34.766Z,839
2023-01-22T13:32:51.028Z,626
2023-01-22T13:34:07.248Z,632
2023-01-22T13:35:23.500Z,637
2023-01-22T13:36:39.728Z,696
2023-01-22T13:37:55.981Z,674
2023-01-22T13:39:12.235Z,694
2023-01-22T13:40:28.452Z,749
2023-01-22T13:41:44.710Z,601
2023-01-22T13:43:00.946Z,538
2023-01-22T13:44:17.193Z,589
2023-01-22T13:45:33.414Z,667
2023-01-22T13:46:49.663Z,677
2023-01-22T13:48:04.921Z,629
2023-01-22T13:49:21.161Z,603
2023-01-22T13:50:37.416Z,553
2023-01-22T13:51:53.649Z,555
2023-01-22T13:53:09.891Z,631
2023-01-22T13:54:26.126Z,692
2023-01-22T13:55:42.361Z,690
2023-01-22T13:56:58.601Z,633
2023-01-22T13:58:14.837Z,606
2023-01-22T13:59:31.084Z,556
2023-01-22T14:00:47.317Z,518
2023-01-22T14:02:03.566Z,484
2023-01-22T14:03:19.815Z,468
2023-01-22T14:04:35.074Z,472
2023-01-22T14:05:51.299Z,436
2023-01-22T14:07:07.551Z,407
2023-01-22T14:08:23.790Z,437
2023-01-22T14:09:40.023Z,502
2023-01-22T14:10:56.268Z,477
2023-01-22T14:12:12.516Z,446
2023-01-22T14:13:28.741Z,421
2023-01-22T14:14:45.006Z,486
2023-01-22T14:16:01.232Z,528
2023-01-22T14:17:17.475Z,503
2023-01-22T14:18:33.702Z,480
2023-01-22T14:19:49.961Z,487
2023-01-22T14:21:05.208Z,473
2023-01-22T14:22:21.447Z,444
2023-01-22T14:23:37.693Z,410
2023-01-22T14:24:53.932Z,389
2023-01-22T14:26:10.173Z,408
2023-01-22T14:27:26.412Z,427
2023-01-22T14:28:42.657Z,455
2023-01-22T14:29:58.902Z,471
2023-01-22T14:31:15.138Z,390
2023-01-22T14:32:31.378Z,349
2023-01-22T14:33:47.615Z,333
2023-01-22T14:35:03.855Z,321
2023-01-22T14:36:20.097Z,265
2023-01-22T14:37:35.353Z,226
2023-01-22T14:38:51.000Z,266
2023-01-22T14:40:07.834Z,284
2023-01-22T14:41:24.083Z,327
2023-01-22T14:42:40.309Z,308
2023-01-22T14:43:56.551Z,241
2023-01-22T14:45:11.812Z,242
2023-01-22T14:46:28.054Z,235
2023-01-22T14:47:44.312Z,193
2023-01-22T14:49:00.555Z,184
2023-01-22T14:50:16.790Z,217
2023-01-22T14:51:33.025Z,257
2023-01-22T14:52:49.262Z,242
2023-01-22T14:54:05.505Z,214
2023-01-22T14:55:21.756Z,211
2023-01-22T14:56:37.983Z,187
2023-01-22T14:57:54.224Z,157
2023-01-22T14:59:10.462Z,169
2023-01-22T15:00:26.714Z,214
2023-01-22T15:01:41.960Z,206
2023-01-22T15:02:58.195Z,181
2023-01-22T15:04:14.450Z,189
2023-01-22T15:05:30.691Z,156
2023-01-22T15:06:46.931Z,167
2023-01-22T15:08:03.160Z,160
2023-01-22T15:09:19.411Z,120
2023-01-22T15:10:35.649Z,120
2023-01-22T15:11:51.879Z,160
2023-01-22T15:13:08.125Z,156
2023-01-22T15:14:24.376Z,164
2023-01-22T15:15:40.620Z,191
2023-01-22T15:16:56.854Z,176
2023-01-22T15:18:12.118Z,146
2023-01-22T15:19:28.357Z,152
2023-01-22T15:20:44.588Z,122
2023-01-22T15:22:00.824Z,96
2023-01-22T15:23:17.075Z,80
2023-01-22T15:24:33.307Z,68
2023-01-22T15:25:49.562Z,58
2023-01-22T15:27:05.785Z,49
2023-01-22T15:28:22.025Z,43
2023-01-22T15:29:38.265Z,40
2023-01-22T15:30:54.514Z,36
2023-01-22T15:32:10.754Z,31
2023-01-22T15:33:27.002Z,26
2023-01-22T15:34:42.256Z,27
2023-01-22T15:35:58.496Z,31
2023-01-22T15:37:14.734Z,27
2023-01-22T15:38:30.984Z,25
2023-01-22T15:39:47.206Z,19
2023-01-22T15:41:03.466Z,17
2023-01-22T15:42:19.697Z,12
2023-01-22T15:43:35.939Z,13
2023-01-22T15:44:52.169Z,11
2023-01-22T15:46:08.425Z,10
2023-01-22T15:47:24.657Z,9
2023-01-22T15:48:40.894Z,7
2023-01-22T15:49:57.144Z,8
2023-01-22T15:51:12.408Z,10
2023-01-22T15:52:28.649Z,5
2023-01-22T15:53:44.869Z,2
2023-01-22T15:55:01.128Z,2
2023-01-22T15:56:17.360Z,3
2023-01-22T15:57:33.610Z,3
2023-01-22T15:58:49.846Z,2
2023-01-22T16:00:06.080Z,2
2023-01-22T16:01:22.324Z,2
2023-01-22T16:02:38.608Z,0
2023-01-22T16:03:54.913Z,0
2023-01-22T16:05:11.152Z,1
2023-01-22T16:06:27.403Z,1
2023-01-22T16:07:42.659Z,1
2023-01-22T16:08:58.000Z,1
2023-01-22T16:10:15.188Z,0
2023-01-22T16:11:31.479Z,0
2023-01-22T16:12:47.775Z,0
2023-01-22T16:14:04.075Z,0
2023-01-22T16:15:20.366Z,0
2023-01-22T16:16:36.661Z,0
2023-01-22T16:17:52.950Z,0
2023-01-22T16:19:09.251Z,0
2023-01-22T16:20:25.543Z,0
2023-01-22T16:21:41.840Z,0
2023-01-22T16:22:58.138Z,0
2023-01-22T16:24:13.448Z,0
2023-01-22T16:25:29.729Z,0
2023-01-22T16:26:46.039Z,0
2023-01-22T16:28:02.341Z,0
2023-01-22T16:29:18.631Z,0
2023-01-22T16:30:34.912Z,0
2023-01-22T16:31:51.230Z,0
2023-01-22T16:33:07.501Z,0
2023-01-22T16:34:23.811Z,0
2023-01-22T16:35:40.104Z,0
2023-01-22T16:36:56.389Z,0
2023-01-22T16:38:12.696Z,0
2023-01-22T16:39:28.989Z,0
2023-01-22T16:40:44.297Z,0
2023-01-22T16:42:00.588Z,0
2023-01-22T16:43:16.872Z,0
2023-01-22T16:44:33.193Z,0
2023-01-22T16:45:49.460Z,0
2023-01-22T16:47:05.764Z,0
2023-01-22T16:48:22.067Z,0
2023-01-22T16:49:38.369Z,0
2023-01-22T16:50:54.655Z,0
2023-01-22T16:52:10.952Z,0
2023-01-22T16:53:27.235Z,0
2023-01-22T16:54:43.531Z,0
2023-01-22T16:55:59.840Z,0
2023-01-22T16:57:15.131Z,0
2023-01-22T16:58:31.428Z,0
2023-01-22T16:59:47.731Z,0
2023-01-22T17:01:04.020Z,0
2023-01-22T17:02:20.318Z,0
2023-01-22T17:03:36.612Z,0
2023-01-22T17:04:52.912Z,0
2023-01-22T17:06:09.207Z,0
2023-01-22T17:07:25.504Z,0
2023-01-22T17:08:41.789Z,0
2023-01-22T17:09:58.084Z,0
2023-01-22T17:11:14.367Z,0
2023-01-22T17:12:30.665Z,0
2023-01-22T17:13:45.992Z,0
2023-01-22T17:15:02.294Z,0
2023-01-22T17:16:18.562Z,0
2023-01-22T17:17:34.877Z,0
2023-01-22T17:18:51.151Z,0
2023-01-22T17:20:07.448Z,0
2023-01-22T17:21:23.763Z,0
2023-01-22T17:22:40.054Z,0
2023-01-22T17:23:56.358Z,0
2023-01-22T17:25:12.650Z,0
2023-01-22T17:26:28.931Z,0
2023-01-22T17:27:45.222Z,0
2023-01-22T17:29:01.510Z,0
2023-01-22T17:30:16.822Z,0
2023-01-22T17:31:33.115Z,0
2023-01-22T17:32:49.426Z,0
2023-01-22T17:34:05.722Z,0
2023-01-22T17:35:22.012Z,0
2023-01-22T17:36:38.318Z,0
2023-01-22T17:37:54.596Z,0
2023-01-22T17:39:10.899Z,0
2023-01-22T17:40:27.191Z,0
2023-01-22T17:41:43.491Z,0
2023-01-22T17:42:59.779Z,0
2023-01-22T17:44:16.073Z,0
2023-01-22T17:45:32.366Z,0
2023-01-22T17:46:47.684Z,0
2023-01-22T17:48:03.984Z,0
2023-01-22T17:49:20.278Z,0
2023-01-22T17:50:36.566Z,0
2023-01-22T17:51:52.861Z,0
2023-01-22T17:53:09.156Z,0
2023-01-22T17:54:25.448Z,0
2023-01-22T17:55:41.759Z,0
2023-01-22T17:56:58.050Z,0
2023-01-22T17:58:14.331Z,0
2023-01-22T17:59:30.627Z,0
2023-01-22T18:00:46.934Z,0
2023-01-22T18:02:03.233Z,0
2023-01-22T18:03:18.538Z,0
2023-01-22T18:04:34.827Z,0
2023-01-22T18:05:51.121Z,0
2023-01-22T18:07:07.411Z,0
2023-01-22T18:08:23.704Z,0
2023-01-22T18:09:40.003Z,0
2023-01-22T18:10:56.304Z,0